Time;durP1;ratioP1;P1;durP2;ratioP2;P2;SDS_P1;SDS_P2;PMS_P1;PMS_P2;Temp;Humidity;BMP_temperature;BMP_pressure;BME280_temperature;BME280_humidity;BME280_pressure;Samples;Min_cycle;Max_cycle;Signal;HPM_P1;HPM_P2
2023/03/30 00:00:42;;;;;;;25.83;17.83;;;10.70;99.90;;;;;;5138310;27;20057;-74
2023/03/30 00:03:08;;;;;;;29.20;19.05;;;10.80;99.90;;;;;;5127190;27;20059;-74
2023/03/30 00:05:35;;;;;;;29.40;18.02;;;10.70;99.90;;;;;;5122807;27;20097;-74
2023/03/30 00:08:01;;;;;;;28.25;19.17;;;10.80;99.90;;;;;;5131124;27;20047;-73
2023/03/30 00:10:28;;;;;;;30.10;18.20;;;10.70;99.90;;;;;;5151583;27;20080;-74
2023/03/30 00:12:55;;;;;;;29.20;17.77;;;10.70;99.90;;;;;;5134127;27;20535;-74
2023/03/30 00:15:22;;;;;;;25.58;17.08;;;10.80;99.90;;;;;;5125474;27;20472;-74
2023/03/30 00:17:50;;;;;;;28.70;16.88;;;10.70;99.90;;;;;;5125147;27;20063;-74
2023/03/30 00:20:16;;;;;;;25.63;17.50;;;10.80;99.90;;;;;;5120428;27;20472;-73
2023/03/30 00:22:43;;;;;;;27.55;16.80;;;10.70;99.90;;;;;;5116540;27;20803;-73
2023/03/30 00:25:12;;;;;;;22.90;16.00;;;10.80;99.90;;;;;;5118733;27;20090;-73
2023/03/30 00:27:39;;;;;;;22.65;15.63;;;10.80;99.90;;;;;;5132105;27;20035;-74
2023/03/30 00:30:07;;;;;;;20.80;14.63;;;10.80;99.90;;;;;;5127698;27;20042;-74
2023/03/30 00:32:33;;;;;;;23.17;14.75;;;10.80;99.90;;;;;;5127121;27;20040;-74
2023/03/30 00:35:00;;;;;;;21.40;14.40;;;10.80;99.90;;;;;;5127230;27;20038;-74
2023/03/30 00:37:26;;;;;;;26.55;13.88;;;10.90;99.90;;;;;;5122877;27;20479;-74
2023/03/30 00:39:52;;;;;;;22.85;14.55;;;10.90;99.90;;;;;;5133837;27;20039;-74
2023/03/30 00:42:20;;;;;;;21.67;14.77;;;10.90;99.90;;;;;;5125044;27;20043;-74
2023/03/30 00:45:06;;;;;;;20.75;14.15;;;10.90;99.90;;;;;;5119980;27;20061;-74
2023/03/30 00:47:37;;;;;;;21.20;14.45;;;10.90;99.90;;;;;;5127674;27;20047;-74
2023/03/30 00:50:04;;;;;;;22.33;14.02;;;11.00;99.90;;;;;;5128778;27;20444;-73
2023/03/30 00:52:31;;;;;;;24.77;12.83;;;10.90;99.90;;;;;;5116882;27;20117;-73
2023/03/30 00:54:58;;;;;;;21.58;12.85;;;10.90;99.90;;;;;;5120949;27;20043;-73
2023/03/30 00:57:24;;;;;;;17.45;12.30;;;10.90;99.90;;;;;;5126410;27;20059;-73
2023/03/30 00:59:51;;;;;;;20.25;11.73;;;10.90;99.90;;;;;;5126836;27;20065;-73
2023/03/30 01:02:20;;;;;;;19.88;11.48;;;10.90;99.90;;;;;;5121256;27;20127;-73
2023/03/30 01:04:47;;;;;;;16.25;10.93;;;10.90;99.90;;;;;;5097128;27;20038;-74
2023/03/30 01:07:14;;;;;;;15.70;11.00;;;10.90;99.90;;;;;;5124217;27;20084;-73
2023/03/30 01:09:41;;;;;;;17.45;10.23;;;10.90;99.90;;;;;;5125225;27;20484;-74
2023/03/30 01:12:07;;;;;;;20.40;10.10;;;11.00;99.90;;;;;;5118541;27;20040;-74
2023/03/30 01:14:34;;;;;;;18.70;10.65;;;11.00;99.90;;;;;;5116488;27;20345;-74
2023/03/30 01:17:25;;;;;;;14.80;9.27;;;11.00;99.90;;;;;;5125476;27;20373;-73
2023/03/30 01:20:10;;;;;;;17.60;10.38;;;11.00;99.90;;;;;;5124192;27;20184;-74
2023/03/30 01:22:36;;;;;;;17.50;9.98;;;11.00;99.90;;;;;;5128408;27;20043;-77
2023/03/30 01:25:39;;;;;;;17.13;9.90;;;11.00;99.90;;;;;;5126458;27;20050;-73
2023/03/30 01:28:17;;;;;;;14.55;8.93;;;11.00;99.90;;;;;;5127102;27;20035;-73
2023/03/30 01:30:53;;;;;;;16.95;10.15;;;11.00;99.90;;;;;;5115890;27;20039;-73
2023/03/30 01:33:37;;;;;;;14.75;8.77;;;11.00;99.90;;;;;;5123468;27;20071;-73
2023/03/30 01:36:20;;;;;;;18.13;9.13;;;11.00;99.90;;;;;;5114714;27;20090;-73
2023/03/30 01:39:14;;;;;;;15.95;9.25;;;11.00;99.90;;;;;;5117861;27;20369;-73
2023/03/30 01:42:00;;;;;;;17.10;9.65;;;11.10;99.90;;;;;;5121381;27;20399;-74
2023/03/30 01:44:34;;;;;;;14.95;8.57;;;11.00;99.90;;;;;;5129427;27;20048;-73
2023/03/30 01:47:18;;;;;;;16.30;8.57;;;11.00;99.90;;;;;;5131104;27;20046;-74
2023/03/30 01:49:59;;;;;;;15.20;9.25;;;11.10;99.90;;;;;;5124195;27;20044;-73
2023/03/30 01:52:35;;;;;;;14.80;8.38;;;11.10;99.90;;;;;;5126572;27;20050;-73
2023/03/30 01:55:17;;;;;;;15.27;9.15;;;11.10;99.90;;;;;;5128892;27;20074;-73
2023/03/30 01:57:56;;;;;;;13.70;9.15;;;11.10;99.90;;;;;;5119736;27;20039;-75
2023/03/30 02:00:23;;;;;;;18.85;8.48;;;11.00;99.90;;;;;;5114339;27;20105;-74
2023/03/30 02:02:59;;;;;;;16.27;8.27;;;11.00;99.90;;;;;;5132329;27;20077;-74
2023/03/30 02:05:27;;;;;;;13.93;8.50;;;11.00;99.90;;;;;;5122523;27;20043;-74
2023/03/30 02:07:57;;;;;;;15.27;8.27;;;11.00;99.90;;;;;;5127372;27;20058;-73
2023/03/30 02:10:27;;;;;;;11.82;7.82;;;10.90;99.90;;;;;;5122167;27;20047;-73
2023/03/30 02:12:56;;;;;;;19.40;8.90;;;10.90;99.90;;;;;;5129211;27;20054;-75
2023/03/30 02:15:24;;;;;;;13.80;7.75;;;10.90;99.90;;;;;;5124047;27;20708;-73
2023/03/30 02:17:50;;;;;;;18.90;8.35;;;10.90;99.90;;;;;;5126071;27;20035;-73
2023/03/30 02:20:16;;;;;;;13.52;8.30;;;11.00;99.90;;;;;;5115721;27;20051;-73
2023/03/30 02:22:43;;;;;;;20.23;7.53;;;10.90;99.90;;;;;;5114567;27;20134;-73
2023/03/30 02:25:09;;;;;;;12.55;7.70;;;10.90;99.90;;;;;;5122388;27;20051;-73
2023/03/30 02:27:36;;;;;;;22.58;8.07;;;10.90;99.90;;;;;;5129539;27;20046;-73
2023/03/30 02:30:06;;;;;;;15.70;7.75;;;10.90;99.90;;;;;;5116019;27;20035;-73
2023/03/30 02:32:45;;;;;;;15.05;6.78;;;10.90;99.90;;;;;;5119345;27;20081;-73
2023/03/30 02:35:30;;;;;;;14.40;6.88;;;10.90;99.90;;;;;;5105767;28;20050;-73
2023/03/30 02:38:02;;;;;;;11.90;6.55;;;10.90;99.90;;;;;;5124905;27;20353;-73
2023/03/30 02:40:40;;;;;;;18.52;6.35;;;10.90;99.90;;;;;;5119661;27;20050;-73
2023/03/30 02:43:25;;;;;;;15.80;6.38;;;10.90;99.90;;;;;;5126993;27;20043;-73
2023/03/30 02:46:00;;;;;;;19.40;5.93;;;10.90;99.90;;;;;;5118924;27;20489;-73
2023/03/30 02:48:53;;;;;;;8.80;5.90;;;10.90;99.90;;;;;;5121634;27;20156;-73
2023/03/30 02:51:18;;;;;;;9.48;5.65;;;10.90;99.90;;;;;;5116781;27;20419;-74
2023/03/30 02:54:11;;;;;;;11.23;6.68;;;11.00;99.90;;;;;;5115246;27;20051;-74
2023/03/30 02:56:50;;;;;;;13.95;6.43;;;11.00;99.90;;;;;;5119252;27;20110;-74
2023/03/30 02:59:21;;;;;;;10.48;5.47;;;11.00;99.90;;;;;;5118741;27;20040;-74
2023/03/30 03:02:12;;;;;;;11.82;5.47;;;11.10;99.90;;;;;;5115533;27;20054;-73
2023/03/30 03:04:42;;;;;;;11.10;5.35;;;11.20;99.90;;;;;;5114527;27;20040;-73
2023/03/30 03:07:10;;;;;;;12.48;5.35;;;11.20;99.90;;;;;;5118189;27;20066;-73
2023/03/30 03:09:36;;;;;;;;;;;11.20;99.90;;;;;;5123358;27;20039;-73
2023/03/30 03:12:02;;;;;;;11.52;6.13;;;11.20;99.90;;;;;;5117964;27;19942;-73
2023/03/30 03:14:28;;;;;;;11.25;4.55;;;11.20;99.90;;;;;;5120119;27;20197;-73
2023/03/30 03:16:54;;;;;;;11.68;4.68;;;11.30;99.90;;;;;;5125862;27;20168;-73
2023/03/30 03:19:20;;;;;;;8.77;4.60;;;11.40;99.90;;;;;;5112811;28;20506;-73
2023/03/30 03:21:46;;;;;;;10.82;4.65;;;11.60;99.90;;;;;;5096084;28;20113;-73
2023/03/30 03:24:16;;;;;;;11.60;4.50;;;11.50;99.90;;;;;;5115623;27;20088;-73
2023/03/30 03:26:42;;;;;;;10.57;4.15;;;11.60;99.90;;;;;;5124192;27;20047;-73
2023/03/30 03:29:08;;;;;;;10.85;4.18;;;11.60;99.90;;;;;;5122781;27;20136;-74
2023/03/30 03:31:34;;;;;;;13.90;4.93;;;11.70;99.90;;;;;;5122453;27;20493;-73
2023/03/30 03:34:00;;;;;;;12.57;3.95;;;11.60;99.90;;;;;;5121691;27;20084;-73
2023/03/30 03:36:26;;;;;;;8.18;3.85;;;11.50;99.90;;;;;;5114229;28;20039;-74
2023/03/30 03:38:52;;;;;;;14.82;4.22;;;11.50;99.90;;;;;;5117405;27;20480;-73
2023/03/30 03:41:18;;;;;;;12.77;4.15;;;11.50;99.90;;;;;;5120700;27;20493;-73
2023/03/30 03:43:44;;;;;;;8.02;4.30;;;11.50;99.90;;;;;;5113254;27;20082;-74
2023/03/30 03:46:10;;;;;;;12.98;4.57;;;11.50;99.90;;;;;;5116974;27;20112;-74
2023/03/30 03:48:35;;;;;;;11.05;4.38;;;11.50;99.90;;;;;;5120207;27;20088;-75
2023/03/30 03:51:01;;;;;;;13.23;4.47;;;11.50;99.90;;;;;;5125159;27;20407;-74
2023/03/30 03:53:27;;;;;;;12.98;4.35;;;11.50;99.90;;;;;;5121481;27;20052;-74
2023/03/30 03:55:53;;;;;;;14.40;5.05;;;11.50;99.90;;;;;;5116923;27;20044;-74
2023/03/30 03:58:20;;;;;;;14.00;4.68;;;11.50;99.90;;;;;;5115794;27;20035;-73
2023/03/30 04:00:46;;;;;;;14.05;4.40;;;11.50;99.90;;;;;;5122390;27;20039;-74
2023/03/30 04:03:12;;;;;;;9.90;3.88;;;11.50;99.90;;;;;;5118796;27;20073;-73
2023/03/30 04:05:38;;;;;;;12.40;4.78;;;11.50;99.90;;;;;;5117742;27;20063;-73
2023/03/30 04:08:04;;;;;;;7.72;3.47;;;11.50;99.90;;;;;;5123611;28;20051;-73
2023/03/30 04:10:30;;;;;;;10.85;4.18;;;11.60;99.90;;;;;;5115172;27;20088;-73
2023/03/30 04:12:57;;;;;;;11.02;3.72;;;11.60;99.90;;;;;;5099019;27;20126;-74
2023/03/30 04:15:23;;;;;;;10.45;3.67;;;11.60;99.90;;;;;;5121813;27;20047;-74
2023/03/30 04:17:56;;;;;;;14.60;4.47;;;11.60;99.90;;;;;;5112920;28;20112;-74
2023/03/30 04:20:23;;;;;;;15.10;3.80;;;11.60;99.90;;;;;;5127626;27;20050;-73
2023/03/30 04:22:48;;;;;;;13.63;3.95;;;11.60;99.90;;;;;;5120271;27;20051;-73
2023/03/30 04:25:14;;;;;;;11.88;4.35;;;11.70;99.90;;;;;;5119331;27;20044;-73
2023/03/30 04:27:44;;;;;;;12.02;4.28;;;11.70;99.90;;;;;;5121898;28;20075;-72
2023/03/30 04:30:11;;;;;;;12.30;3.35;;;11.70;99.90;;;;;;5118295;27;20061;-73
2023/03/30 04:32:37;;;;;;;13.27;3.30;;;11.70;99.90;;;;;;5112907;27;20461;-73
2023/03/30 04:35:07;;;;;;;13.27;3.70;;;11.70;99.90;;;;;;5126950;27;20036;-73
2023/03/30 04:37:34;;;;;;;10.05;3.05;;;11.70;99.90;;;;;;5118784;28;20065;-73
2023/03/30 04:40:01;;;;;;;14.15;3.60;;;11.60;99.90;;;;;;5117394;27;20082;-74
2023/03/30 04:42:32;;;;;;;12.32;3.47;;;11.70;99.90;;;;;;5117607;27;20047;-74
2023/03/30 04:44:59;;;;;;;12.88;3.70;;;11.60;99.90;;;;;;5133396;27;20138;-73
2023/03/30 04:47:27;;;;;;;7.40;3.50;;;11.60;99.90;;;;;;5128588;27;20396;-73
2023/03/30 04:49:52;;;;;;;10.38;2.95;;;11.60;99.90;;;;;;5122570;27;20074;-73
2023/03/30 04:52:19;;;;;;;13.73;3.10;;;11.70;99.90;;;;;;5125973;27;20047;-72
2023/03/30 04:54:45;;;;;;;13.43;3.00;;;11.70;99.90;;;;;;5126154;27;20035;-72
2023/03/30 04:57:12;;;;;;;10.63;3.22;;;11.70;99.90;;;;;;5116332;27;20040;-72
2023/03/30 04:59:39;;;;;;;10.93;3.50;;;11.80;99.90;;;;;;5126146;27;20611;-73
2023/03/30 05:02:05;;;;;;;13.65;2.95;;;11.70;99.90;;;;;;5116410;27;20065;-72
2023/03/30 05:04:30;;;;;;;7.90;3.15;;;11.70;99.90;;;;;;5128535;27;20040;-72
2023/03/30 05:06:56;;;;;;;11.90;2.88;;;11.70;99.90;;;;;;5119839;27;20510;-73
2023/03/30 05:09:22;;;;;;;10.40;2.95;;;11.80;99.90;;;;;;5126019;27;20042;-73
2023/03/30 05:11:48;;;;;;;11.30;3.30;;;11.80;99.90;;;;;;5119739;27;20039;-73
2023/03/30 05:14:14;;;;;;;15.95;3.25;;;11.70;99.90;;;;;;5115670;27;20116;-73
2023/03/30 05:16:40;;;;;;;10.35;3.30;;;11.70;99.90;;;;;;5116494;27;20404;-72
2023/03/30 05:19:05;;;;;;;11.85;3.17;;;11.70;99.90;;;;;;5129169;27;20050;-73
2023/03/30 05:21:31;;;;;;;16.65;3.83;;;11.70;99.90;;;;;;5123216;27;20043;-73
2023/03/30 05:23:57;;;;;;;10.27;4.10;;;11.70;99.90;;;;;;5123243;27;20035;-73
2023/03/30 05:26:22;;;;;;;12.93;3.45;;;11.80;99.90;;;;;;5123100;27;20392;-73
2023/03/30 05:28:49;;;;;;;12.68;3.35;;;11.70;99.90;;;;;;5101917;27;20074;-72
2023/03/30 05:31:15;;;;;;;11.60;3.35;;;11.80;99.90;;;;;;5119274;27;20046;-73
2023/03/30 05:33:40;;;;;;;10.55;3.75;;;11.80;99.90;;;;;;5119079;27;20043;-72
2023/03/30 05:36:06;;;;;;;16.48;3.58;;;11.80;99.90;;;;;;5123946;27;20085;-73
2023/03/30 05:38:32;;;;;;;13.93;3.95;;;11.80;99.90;;;;;;5114836;27;20409;-73
2023/03/30 05:40:57;;;;;;;16.60;3.53;;;11.80;99.90;;;;;;5121325;27;20034;-73
2023/03/30 05:43:23;;;;;;;13.80;3.92;;;11.80;99.90;;;;;;5120254;27;20112;-72
2023/03/30 05:45:49;;;;;;;19.20;4.50;;;11.90;99.90;;;;;;5118523;27;20027;-73
2023/03/30 05:48:14;;;;;;;16.85;4.45;;;11.80;99.90;;;;;;5095058;28;20035;-72
2023/03/30 05:50:41;;;;;;;14.73;4.68;;;11.80;99.90;;;;;;5118148;27;20126;-71
2023/03/30 05:53:07;;;;;;;17.08;4.20;;;11.80;99.90;;;;;;5118225;27;20079;-72
2023/03/30 05:55:33;;;;;;;14.88;4.05;;;11.80;99.90;;;;;;5117467;27;20861;-72
2023/03/30 05:57:59;;;;;;;16.60;3.95;;;11.80;99.90;;;;;;5106089;27;20043;-71
2023/03/30 06:00:25;;;;;;;12.32;4.82;;;11.80;99.90;;;;;;5119932;27;20667;-71
2023/03/30 06:02:51;;;;;;;13.32;3.92;;;11.80;99.90;;;;;;5122037;27;20057;-71
2023/03/30 06:05:17;;;;;;;10.40;3.78;;;11.80;99.90;;;;;;5129470;27;20034;-71
2023/03/30 06:07:44;;;;;;;15.52;4.60;;;11.80;99.90;;;;;;5115547;27;20040;-71
2023/03/30 06:10:11;;;;;;;15.77;4.55;;;11.80;99.90;;;;;;5119880;27;20039;-71
2023/03/30 06:12:38;;;;;;;16.25;4.07;;;11.80;99.90;;;;;;5127528;27;20115;-71
2023/03/30 06:15:04;;;;;;;10.55;4.35;;;11.90;99.90;;;;;;5118765;27;20063;-71
2023/03/30 06:17:30;;;;;;;17.23;4.18;;;11.90;99.90;;;;;;5125565;27;20035;-71
2023/03/30 06:19:56;;;;;;;20.38;4.32;;;11.90;99.90;;;;;;5118515;27;20095;-72
2023/03/30 06:22:22;;;;;;;15.52;4.57;;;12.00;99.90;;;;;;5117102;27;20043;-71
2023/03/30 06:24:47;;;;;;;17.02;4.38;;;12.00;99.90;;;;;;5125698;27;20032;-71
2023/03/30 06:27:13;;;;;;;14.63;4.35;;;12.00;99.90;;;;;;5118020;27;20063;-72
2023/03/30 06:29:38;;;;;;;12.70;4.07;;;12.00;99.90;;;;;;5121734;27;20066;-71
2023/03/30 06:32:04;;;;;;;11.63;4.18;;;12.00;99.90;;;;;;5112395;27;20041;-70
2023/03/30 06:34:30;;;;;;;10.82;4.43;;;12.00;99.90;;;;;;5117125;27;20035;-71
2023/03/30 06:36:56;;;;;;;12.30;4.28;;;12.10;99.90;;;;;;5119058;27;20043;-71
2023/03/30 06:39:23;;;;;;;10.95;4.30;;;12.00;99.90;;;;;;5114459;27;20047;-71
2023/03/30 06:41:48;;;;;;;12.30;4.15;;;12.10;99.90;;;;;;5118765;27;20400;-71
2023/03/30 06:44:14;;;;;;;13.32;4.55;;;12.20;99.90;;;;;;5122969;27;20058;-71
2023/03/30 06:46:41;;;;;;;12.15;4.65;;;12.10;99.90;;;;;;5119491;27;20036;-71
2023/03/30 06:49:07;;;;;;;15.27;4.82;;;12.10;99.90;;;;;;5124601;27;20047;-71
2023/03/30 06:51:36;;;;;;;14.05;4.25;;;12.20;99.90;;;;;;5109366;27;20764;-70
2023/03/30 06:54:02;;;;;;;14.13;4.03;;;12.20;99.90;;;;;;5110597;27;20231;-70
2023/03/30 06:56:28;;;;;;;13.13;4.95;;;12.30;99.90;;;;;;5122008;27;20043;-70
2023/03/30 06:58:55;;;;;;;14.73;4.63;;;12.30;99.90;;;;;;5128296;27;20046;-71
2023/03/30 07:01:21;;;;;;;14.85;4.93;;;12.30;99.90;;;;;;5114431;27;20049;-70
2023/03/30 07:03:47;;;;;;;14.50;4.57;;;12.30;99.90;;;;;;5115817;27;20126;-71
2023/03/30 07:06:12;;;;;;;13.27;4.63;;;12.30;99.90;;;;;;5115077;27;20044;-71
2023/03/30 07:08:39;;;;;;;12.50;3.90;;;12.40;99.90;;;;;;5121021;27;20041;-71
2023/03/30 07:11:05;;;;;;;17.40;4.00;;;12.50;99.90;;;;;;5123862;27;20071;-71
2023/03/30 07:13:33;;;;;;;14.27;3.72;;;12.40;99.90;;;;;;5114011;27;20055;-71
2023/03/30 07:15:58;;;;;;;18.35;3.80;;;12.40;99.90;;;;;;5116552;27;20048;-71
2023/03/30 07:18:24;;;;;;;18.23;3.70;;;12.40;99.90;;;;;;5129650;27;20043;-71
2023/03/30 07:20:50;;;;;;;24.15;4.22;;;12.50;99.90;;;;;;5127738;27;20039;-71
2023/03/30 07:23:16;;;;;;;20.77;3.72;;;12.60;99.90;;;;;;5117227;27;20044;-71
2023/03/30 07:25:43;;;;;;;20.88;4.95;;;12.60;99.90;;;;;;5115987;27;20039;-71
2023/03/30 07:28:09;;;;;;;14.80;3.73;;;12.60;99.90;;;;;;5115913;28;20084;-72
2023/03/30 07:30:35;;;;;;;18.92;3.83;;;12.60;99.90;;;;;;5125648;28;20027;-73
2023/03/30 07:33:02;;;;;;;22.70;4.43;;;12.70;99.90;;;;;;5106860;28;20039;-72
2023/03/30 07:35:27;;;;;;;18.95;4.25;;;12.60;99.90;;;;;;5117348;27;20039;-72
2023/03/30 07:37:53;;;;;;;18.83;3.70;;;12.60;99.90;;;;;;5114896;28;20039;-72
2023/03/30 07:40:20;;;;;;;22.50;3.72;;;12.60;99.90;;;;;;5126349;28;20479;-72
2023/03/30 07:42:46;;;;;;;29.98;4.43;;;12.50;99.90;;;;;;5097330;28;20468;-72
2023/03/30 07:45:13;;;;;;;20.58;4.68;;;12.50;99.90;;;;;;5118290;28;20118;-71
2023/03/30 07:47:39;;;;;;;21.70;3.97;;;12.50;99.90;;;;;;5128322;28;20166;-71
2023/03/30 07:50:05;;;;;;;21.15;4.38;;;12.50;99.90;;;;;;5114048;28;20109;-72
2023/03/30 07:52:31;;;;;;;22.42;4.05;;;12.40;99.90;;;;;;5092015;28;20055;-72
2023/03/30 07:54:57;;;;;;;24.17;4.55;;;12.40;99.90;;;;;;5120305;27;20066;-72
2023/03/30 07:57:24;;;;;;;25.30;4.10;;;12.40;99.90;;;;;;5117328;28;20047;-72
2023/03/30 07:59:50;;;;;;;14.30;3.75;;;12.30;99.90;;;;;;5118565;27;20049;-71
2023/03/30 08:02:16;;;;;;;14.60;4.28;;;12.30;99.90;;;;;;5117806;27;20452;-71
2023/03/30 08:04:43;;;;;;;19.42;4.72;;;12.20;99.90;;;;;;5117834;27;20089;-73
2023/03/30 08:07:09;;;;;;;21.35;4.95;;;12.20;99.90;;;;;;5094057;28;20346;-72
2023/03/30 08:09:35;;;;;;;20.08;4.55;;;12.20;99.90;;;;;;5120520;28;20070;-72
2023/03/30 08:12:01;;;;;;;21.75;4.55;;;12.10;99.90;;;;;;5122838;28;20031;-72
2023/03/30 08:14:26;;;;;;;27.00;4.63;;;12.10;99.90;;;;;;5098568;28;20036;-72
2023/03/30 08:16:53;;;;;;;24.88;5.07;;;12.10;99.90;;;;;;5126701;27;20043;-72
2023/03/30 08:19:20;;;;;;;24.08;4.75;;;12.10;99.90;;;;;;5109891;27;20039;-72
2023/03/30 08:21:46;;;;;;;26.13;4.78;;;12.10;99.90;;;;;;5105887;28;20046;-71
2023/03/30 08:24:11;;;;;;;25.92;4.47;;;12.00;99.90;;;;;;5125607;27;20107;-71
2023/03/30 08:26:37;;;;;;;25.60;4.63;;;12.10;99.90;;;;;;5136636;27;20487;-72
2023/03/30 08:29:03;;;;;;;25.25;4.32;;;12.10;99.90;;;;;;5133303;27;20070;-71
2023/03/30 08:31:31;;;;;;;30.05;5.30;;;12.10;99.90;;;;;;5132547;27;20046;-70
2023/03/30 08:33:57;;;;;;;;;;;12.10;99.90;;;;;;5133203;27;20498;-72
2023/03/30 08:36:23;;;;;;;26.40;5.03;;;12.10;99.90;;;;;;5133662;27;19942;-71
2023/03/30 08:38:49;;;;;;;23.48;4.65;;;12.10;99.90;;;;;;5128427;27;20433;-72
2023/03/30 08:41:43;;;;;;;28.23;5.53;;;12.00;99.90;;;;;;5136251;27;20038;-72
2023/03/30 08:44:16;;;;;;;35.92;6.75;;;11.90;99.90;;;;;;5109208;28;20132;-71
2023/03/30 08:46:42;;;;;;;24.58;5.30;;;11.90;99.90;;;;;;5124855;27;20112;-71
2023/03/30 08:49:15;;;;;;;23.15;5.28;;;11.80;99.90;;;;;;5116949;28;20508;-72
2023/03/30 08:51:41;;;;;;;25.80;5.57;;;11.70;99.90;;;;;;5135195;27;20119;-71
2023/03/30 08:54:14;;;;;;;32.47;5.72;;;11.70;99.90;;;;;;5122969;27;20139;-72
2023/03/30 08:56:59;;;;;;;30.50;6.43;;;11.60;99.90;;;;;;5130107;27;20027;-72
2023/03/30 08:59:37;;;;;;;31.80;5.95;;;11.70;99.90;;;;;;5084502;28;20412;-72
2023/03/30 09:02:22;;;;;;;27.50;5.43;;;11.70;99.90;;;;;;5104239;27;20495;-72
2023/03/30 09:04:57;;;;;;;24.42;5.75;;;11.70;99.90;;;;;;5120020;27;20046;-72
2023/03/30 09:07:26;;;;;;;31.40;6.43;;;11.80;99.90;;;;;;5121838;27;20703;-72
2023/03/30 09:09:54;;;;;;;33.08;5.57;;;11.80;99.90;;;;;;5121210;27;20066;-72
2023/03/30 09:12:38;;;;;;;31.27;5.95;;;11.90;99.90;;;;;;5119214;27;20043;-72
2023/03/30 09:15:11;;;;;;;30.30;5.50;;;12.00;99.90;;;;;;5118564;27;20116;-71
2023/03/30 09:17:45;;;;;;;30.90;6.68;;;12.20;99.90;;;;;;5103658;28;20039;-71
2023/03/30 09:20:19;;;;;;;23.80;4.93;;;12.30;99.90;;;;;;5111018;28;20031;-71
2023/03/30 09:22:47;;;;;;;22.13;5.30;;;12.40;99.90;;;;;;5117654;27;20473;-72
2023/03/30 09:25:14;;;;;;;34.38;5.93;;;12.50;99.90;;;;;;5117167;27;20119;-72
2023/03/30 09:28:16;;;;;;;25.50;5.03;;;12.60;99.90;;;;;;5120694;27;20035;-72
2023/03/30 09:30:47;;;;;;;30.10;5.28;;;12.70;99.90;;;;;;5121263;27;20396;-71
2023/03/30 09:33:27;;;;;;;25.05;5.15;;;12.70;99.90;;;;;;5118662;27;20079;-72
2023/03/30 09:36:10;;;;;;;25.70;5.15;;;12.80;99.90;;;;;;5129419;27;20035;-72
2023/03/30 09:38:40;;;;;;;24.45;4.80;;;12.90;99.90;;;;;;5119498;28;20066;-73
2023/03/30 09:41:16;;;;;;;25.38;5.38;;;13.00;99.90;;;;;;5092057;27;20095;-73
2023/03/30 09:43:45;;;;;;;28.63;5.55;;;13.10;99.90;;;;;;5157087;27;20061;-72
2023/03/30 09:46:12;;;;;;;27.10;5.00;;;13.10;99.90;;;;;;5138370;27;20466;-71
2023/03/30 09:48:44;;;;;;;20.88;4.13;;;13.30;99.90;;;;;;5126644;27;20059;-71
2023/03/30 09:51:28;;;;;;;19.55;4.10;;;13.30;99.90;;;;;;5136879;27;20077;-71
2023/03/30 09:54:00;;;;;;;22.95;4.57;;;13.40;99.90;;;;;;5114967;27;20047;-71
2023/03/30 09:56:44;;;;;;;21.67;4.85;;;13.30;99.90;;;;;;5081563;28;20051;-71
2023/03/30 09:59:36;;;;;;;20.73;4.25;;;13.30;99.90;;;;;;5104101;28;20040;-71
2023/03/30 10:02:29;;;;;;;13.80;3.50;;;13.20;99.90;;;;;;5102828;28;20110;-71
2023/03/30 10:05:01;;;;;;;20.83;4.35;;;13.20;99.90;;;;;;5073386;28;20063;-72
2023/03/30 10:07:35;;;;;;;19.15;4.40;;;13.10;99.90;;;;;;5101407;28;20099;-71
2023/03/30 10:10:13;;;;;;;15.23;4.47;;;13.20;99.90;;;;;;5081760;28;20036;-71
2023/03/30 10:12:39;;;;;;;18.38;3.70;;;13.10;99.90;;;;;;5108641;28;20114;-71
2023/03/30 10:15:11;;;;;;;24.13;4.43;;;13.00;99.90;;;;;;5092943;28;20361;-71
2023/03/30 10:17:40;;;;;;;21.58;3.92;;;13.00;99.90;;;;;;5105096;28;20130;-71
2023/03/30 10:20:22;;;;;;;17.83;4.15;;;13.00;99.90;;;;;;5104436;28;20031;-71
2023/03/30 10:22:53;;;;;;;14.30;3.95;;;13.00;99.90;;;;;;5101720;28;20047;-71
2023/03/30 10:25:23;;;;;;;16.27;3.75;;;13.10;99.90;;;;;;5108608;28;20050;-71
2023/03/30 10:27:54;;;;;;;22.92;4.68;;;13.20;99.90;;;;;;5097314;27;20381;-71
2023/03/30 10:30:23;;;;;;;17.92;4.10;;;13.20;99.90;;;;;;5081860;28;20046;-71
2023/03/30 10:32:50;;;;;;;17.75;3.58;;;13.20;99.90;;;;;;5108941;28;20042;-71
2023/03/30 10:35:20;;;;;;;19.25;4.18;;;13.20;99.90;;;;;;5092288;28;20421;-71
2023/03/30 10:37:48;;;;;;;15.60;3.67;;;13.20;99.90;;;;;;5107375;28;20063;-71
2023/03/30 10:40:22;;;;;;;18.10;3.28;;;13.10;99.90;;;;;;5098960;28;20069;-71
2023/03/30 10:42:54;;;;;;;13.70;3.47;;;13.20;99.90;;;;;;5092615;28;20048;-71
2023/03/30 10:45:26;;;;;;;19.95;4.60;;;13.20;99.90;;;;;;5092753;28;20056;-71
2023/03/30 10:48:05;;;;;;;23.08;4.93;;;13.30;99.90;;;;;;5074496;28;20065;-72
2023/03/30 10:50:49;;;;;;;;;;;13.30;99.90;;;;;;5093143;28;20044;-72
2023/03/30 10:53:36;;;;;;;20.23;4.65;;;13.40;99.90;;;;;;5110205;27;19978;-72
2023/03/30 10:56:07;;;;;;;27.27;4.55;;;13.50;99.90;;;;;;5112596;27;20124;-72
2023/03/30 10:58:56;;;;;;;22.10;4.78;;;13.50;99.90;;;;;;5131607;27;20035;-71
2023/03/30 11:01:46;;;;;;;26.38;4.90;;;13.50;99.90;;;;;;5123368;27;20046;-71
2023/03/30 11:04:37;;;;;;;23.08;4.70;;;13.50;99.90;;;;;;5119324;27;20039;-71
2023/03/30 11:07:10;;;;;;;23.88;5.70;;;13.50;99.90;;;;;;5111405;27;20067;-71
2023/03/30 11:09:40;;;;;;;20.77;5.18;;;13.40;99.90;;;;;;5114363;27;20045;-72
2023/03/30 11:12:18;;;;;;;25.38;4.72;;;13.50;99.90;;;;;;5125221;27;20047;-71
2023/03/30 11:15:01;;;;;;;21.17;4.53;;;13.40;99.90;;;;;;5111182;28;20093;-71
2023/03/30 11:18:01;;;;;;;26.33;5.18;;;13.40;99.90;;;;;;5114384;27;20126;-71
2023/03/30 11:20:32;;;;;;;28.13;5.10;;;13.40;99.90;;;;;;5122025;27;20055;-71
2023/03/30 11:23:04;;;;;;;21.60;4.90;;;13.40;99.90;;;;;;5113970;28;20722;-72
2023/03/30 11:25:44;;;;;;;27.95;5.95;;;13.50;99.90;;;;;;5125640;27;20383;-71
2023/03/30 11:28:27;;;;;;;26.63;5.88;;;13.50;99.90;;;;;;5133982;27;20047;-72
2023/03/30 11:30:58;;;;;;;23.05;4.85;;;13.70;99.90;;;;;;5122586;27;20062;-72
2023/03/30 11:33:40;;;;;;;24.33;5.18;;;13.90;99.90;;;;;;5113479;28;20089;-72
2023/03/30 11:36:22;;;;;;;21.90;4.55;;;13.90;99.90;;;;;;5120015;28;20035;-71
2023/03/30 11:39:05;;;;;;;30.67;5.32;;;13.90;99.90;;;;;;5114844;28;20541;-72
2023/03/30 11:41:39;;;;;;;20.27;4.47;;;13.90;99.90;;;;;;5116889;28;20461;-71
2023/03/30 11:44:08;;;;;;;21.58;4.05;;;13.90;99.90;;;;;;5112914;28;20051;-71
2023/03/30 11:46:46;;;;;;;23.73;5.47;;;14.00;99.90;;;;;;5112396;28;20048;-72
2023/03/30 11:49:24;;;;;;;21.70;4.35;;;14.20;99.90;;;;;;5114481;28;20080;-72
2023/03/30 11:52:04;;;;;;;21.88;4.03;;;14.30;99.90;;;;;;5095800;28;20073;-72
2023/03/30 11:54:57;;;;;;;20.40;4.10;;;14.30;99.90;;;;;;5122640;27;20088;-72
2023/03/30 11:57:57;;;;;;;21.50;4.47;;;14.30;99.90;;;;;;5139912;27;20100;-72
2023/03/30 12:00:42;;;;;;;24.52;5.45;;;14.30;99.90;;;;;;5119164;27;20047;-71
2023/03/30 12:03:25;;;;;;;23.58;4.63;;;14.40;99.90;;;;;;5162457;27;20078;-72
2023/03/30 12:06:10;;;;;;;26.92;5.90;;;14.40;99.90;;;;;;5130681;27;20066;-72
2023/03/30 12:08:38;;;;;;;27.10;5.35;;;14.30;99.90;;;;;;5124288;27;20046;-71
2023/03/30 12:11:31;;;;;;;31.48;5.63;;;14.30;99.90;;;;;;5119847;27;20126;-72
2023/03/30 12:13:58;;;;;;;23.83;4.70;;;14.30;99.90;;;;;;5118888;27;20044;-71
2023/03/30 12:16:40;;;;;;;27.35;5.22;;;14.30;99.90;;;;;;5121623;28;20043;-72
2023/03/30 12:19:16;;;;;;;27.33;5.07;;;14.30;99.90;;;;;;5121791;28;20400;-71
2023/03/30 12:21:56;;;;;;;25.33;4.45;;;14.40;99.90;;;;;;5125067;27;20086;-71
2023/03/30 12:24:55;;;;;;;23.58;4.63;;;14.30;99.90;;;;;;5122768;27;20468;-71
2023/03/30 12:27:21;;;;;;;25.95;4.03;;;14.40;99.90;;;;;;5094982;27;20047;-71
2023/03/30 12:29:50;;;;;;;22.05;4.25;;;14.40;99.90;;;;;;5123893;27;20044;-71
2023/03/30 12:32:21;;;;;;;22.75;4.85;;;14.80;99.90;;;;;;5121600;27;20088;-71
2023/03/30 12:34:47;;;;;;;22.85;5.45;;;15.10;99.90;;;;;;5098738;27;20047;-73
2023/03/30 12:37:21;;;;;;;21.77;4.25;;;15.40;99.90;;;;;;5116754;27;20085;-72
2023/03/30 12:39:52;;;;;;;21.73;4.72;;;15.80;99.90;;;;;;5121866;27;20054;-72
2023/03/30 12:42:34;;;;;;;18.02;4.40;;;16.20;99.90;;;;;;5130044;27;20050;-72
2023/03/30 12:45:20;;;;;;;26.00;5.05;;;16.50;99.90;;;;;;5130616;27;20485;-72
2023/03/30 12:48:17;;;;;;;18.40;3.65;;;17.00;99.90;;;;;;5096950;27;20135;-72
2023/03/30 12:51:01;;;;;;;22.42;4.40;;;17.40;99.90;;;;;;5115358;27;20077;-72
2023/03/30 12:53:36;;;;;;;19.50;4.32;;;17.20;99.90;;;;;;5088092;27;20057;-72
2023/03/30 12:56:06;;;;;;;22.08;4.72;;;17.00;99.90;;;;;;5119971;27;20035;-72
2023/03/30 12:58:41;;;;;;;17.13;3.97;;;17.10;99.90;;;;;;5105137;27;20046;-72